Time;durP1;ratioP1;P1;durP2;ratioP2;P2;SDS_P1;SDS_P2;PMS_P1;PMS_P2;Temp;Humidity;BMP_temperature;BMP_pressure;BME280_temperature;BME280_humidity;BME280_pressure;Samples;Min_cycle;Max_cycle;Signal;HPM_P1;HPM_P2
2021/11/01 00:00:18;;;;;;;23.13;3.67;;;10.90;99.90;;;;;;4953609;28;20031;-55
2021/11/01 00:02:46;;;;;;;18.40;4.07;;;10.90;99.90;;;;;;4962983;28;20035;-53
2021/11/01 00:05:12;;;;;;;25.48;4.40;;;10.90;99.90;;;;;;4961123;28;20047;-54
2021/11/01 00:07:38;;;;;;;21.80;3.92;;;11.00;99.90;;;;;;4954465;28;20822;-50
2021/11/01 00:10:05;;;;;;;28.30;4.20;;;10.90;99.90;;;;;;4958585;28;20039;-53
2021/11/01 00:14:59;;;;;;;18.17;4.13;;;10.90;99.90;;;;;;5042459;22;20540;-54
2021/11/01 00:17:26;;;;;;;18.50;3.40;;;10.80;99.90;;;;;;5034561;28;20045;-54
2021/11/01 00:19:55;;;;;;;37.55;5.05;;;10.80;99.90;;;;;;5032769;28;20279;-54
2021/11/01 00:22:22;;;;;;;27.05;4.18;;;10.90;99.90;;;;;;5034193;28;20045;-53
2021/11/01 00:24:49;;;;;;;23.85;5.47;;;10.90;99.90;;;;;;4995114;28;20459;-54
2021/11/01 00:27:15;;;;;;;15.15;3.30;;;10.90;99.90;;;;;;5036143;28;20072;-54
2021/11/01 00:29:42;;;;;;;15.85;3.83;;;10.80;99.90;;;;;;5032733;28;20049;-53
2021/11/01 00:32:07;;;;;;;26.02;4.25;;;10.80;99.90;;;;;;5039033;28;20043;-54
2021/11/01 00:34:33;;;;;;;18.95;3.53;;;10.80;99.90;;;;;;5035848;28;20435;-53
2021/11/01 00:36:59;;;;;;;27.00;4.20;;;10.80;99.90;;;;;;5031666;28;20025;-53
2021/11/01 00:39:25;;;;;;;25.13;4.50;;;10.80;99.90;;;;;;5037777;28;20051;-54
2021/11/01 00:41:50;;;;;;;18.17;3.22;;;10.80;99.90;;;;;;5037719;28;20140;-53
2021/11/01 00:44:16;;;;;;;26.67;3.85;;;10.70;99.90;;;;;;5034373;28;20088;-54
2021/11/01 00:46:42;;;;;;;18.23;3.35;;;10.70;99.90;;;;;;5028210;28;20556;-54
2021/11/01 00:49:08;;;;;;;23.30;3.40;;;10.70;99.90;;;;;;5039105;28;20640;-54
2021/11/01 00:51:38;;;;;;;20.80;3.55;;;10.70;99.90;;;;;;4989335;28;20025;-54
2021/11/01 00:54:04;;;;;;;16.90;3.20;;;10.70;99.90;;;;;;5033533;28;20037;-54
2021/11/01 00:56:30;;;;;;;18.80;3.38;;;10.70;99.90;;;;;;5031815;28;20098;-54
2021/11/01 00:58:56;;;;;;;22.27;3.30;;;10.70;99.90;;;;;;5027322;28;20075;-54
2021/11/01 01:01:22;;;;;;;17.15;3.00;;;10.70;99.90;;;;;;5027806;28;20175;-54
2021/11/01 01:03:50;;;;;;;20.35;3.58;;;10.70;99.90;;;;;;5029260;28;20444;-53
2021/11/01 01:06:17;;;;;;;17.55;3.42;;;10.60;99.90;;;;;;5033501;28;20033;-53
2021/11/01 01:08:43;;;;;;;13.05;3.30;;;10.60;99.90;;;;;;5040571;28;20041;-51
2021/11/01 01:11:09;;;;;;;18.05;3.78;;;10.60;99.90;;;;;;5036188;28;20041;-54
2021/11/01 01:13:38;;;;;;;17.17;4.00;;;10.70;99.90;;;;;;5016824;28;20048;-51
2021/11/01 01:18:44;;;;;;;27.02;4.07;;;10.60;99.90;;;;;;5024500;28;20045;-53
2021/11/01 01:23:55;;;;;;;22.20;3.53;;;10.60;99.90;;;;;;5027485;28;20056;-51
2021/11/01 01:27:10;;;;;;;19.40;3.17;;;10.50;99.90;;;;;;5038490;28;20049;-52
2021/11/01 01:29:39;;;;;;;17.85;4.10;;;10.40;99.90;;;;;;5032493;28;20037;-48
2021/11/01 01:32:06;;;;;;;18.00;3.83;;;10.50;99.90;;;;;;5030621;28;20577;-50
2021/11/01 01:34:32;;;;;;;25.17;3.92;;;10.50;99.90;;;;;;5034234;28;20033;-49
2021/11/01 01:36:57;;;;;;;22.48;3.67;;;10.50;99.90;;;;;;5031249;28;20400;-49
2021/11/01 01:39:23;;;;;;;16.77;2.60;;;10.40;99.90;;;;;;5030520;28;20100;-52
2021/11/01 01:41:48;;;;;;;11.90;2.88;;;10.40;99.90;;;;;;5038375;28;20041;-50
2021/11/01 01:44:14;;;;;;;14.30;3.22;;;10.40;99.90;;;;;;5036509;28;20035;-49
2021/11/01 01:46:40;;;;;;;13.50;2.85;;;10.40;99.90;;;;;;5037531;28;20087;-49
2021/11/01 01:49:06;;;;;;;24.25;3.80;;;10.40;99.90;;;;;;5031701;28;20033;-48
2021/11/01 01:51:32;;;;;;;22.30;3.60;;;10.40;99.90;;;;;;5042093;28;20030;-52
2021/11/01 01:53:59;;;;;;;18.80;3.17;;;10.40;99.90;;;;;;5047272;28;20124;-49
2021/11/01 01:56:25;;;;;;;24.27;3.28;;;10.40;99.90;;;;;;5034899;28;20079;-52
2021/11/01 01:58:56;;;;;;;18.23;3.25;;;10.30;99.90;;;;;;5043256;28;20517;-49
2021/11/01 02:01:23;;;;;;;24.80;3.75;;;10.30;99.90;;;;;;5016395;28;20531;-49
2021/11/01 02:03:50;;;;;;;19.40;3.72;;;10.30;99.90;;;;;;5044679;28;20508;-49
2021/11/01 02:06:44;;;;;;;12.73;3.25;;;10.20;99.90;;;;;;5043766;28;20037;-50
2021/11/01 02:09:17;;;;;;;14.57;3.15;;;10.30;99.90;;;;;;5025478;28;20033;-49
2021/11/01 02:11:56;;;;;;;16.30;2.75;;;10.30;99.90;;;;;;5025032;28;20041;-48
2021/11/01 02:14:31;;;;;;;13.90;3.40;;;10.30;99.90;;;;;;5036720;28;20037;-52
2021/11/01 02:17:00;;;;;;;20.00;3.47;;;10.30;99.90;;;;;;5030517;28;20042;-48
2021/11/01 02:19:32;;;;;;;17.27;3.42;;;10.30;99.90;;;;;;5030815;28;20359;-48
2021/11/01 02:22:05;;;;;;;16.30;3.35;;;10.20;99.90;;;;;;5043350;28;20041;-48
2021/11/01 02:24:43;;;;;;;15.00;3.38;;;10.20;99.90;;;;;;5017180;28;20432;-48
2021/11/01 02:27:11;;;;;;;17.33;3.17;;;10.20;99.90;;;;;;5031241;28;20037;-49
2021/11/01 02:29:42;;;;;;;15.65;3.10;;;10.20;99.90;;;;;;5035227;28;20037;-48
2021/11/01 02:32:07;;;;;;;14.90;3.13;;;10.20;99.90;;;;;;5038399;28;20060;-49
2021/11/01 02:34:34;;;;;;;16.15;3.42;;;10.20;99.90;;;;;;5041381;28;20037;-48
2021/11/01 02:37:00;;;;;;;16.73;3.17;;;10.20;99.90;;;;;;5037570;28;20104;-54
2021/11/01 02:39:26;;;;;;;14.35;3.10;;;10.20;99.90;;;;;;5014335;28;20045;-50
2021/11/01 02:41:53;;;;;;;15.70;3.05;;;10.20;99.90;;;;;;5023762;28;20044;-51
2021/11/01 02:44:21;;;;;;;14.80;3.42;;;10.10;99.90;;;;;;5031720;28;20041;-49
2021/11/01 02:46:47;;;;;;;13.77;3.00;;;10.10;99.90;;;;;;5032287;28;20124;-48
2021/11/01 02:49:13;;;;;;;14.95;3.33;;;10.10;99.90;;;;;;5039309;28;20104;-48
2021/11/01 02:51:40;;;;;;;15.02;2.90;;;10.10;99.90;;;;;;5035155;28;20064;-49
2021/11/01 02:54:07;;;;;;;13.07;3.10;;;10.00;99.90;;;;;;5017644;28;20116;-51
2021/11/01 02:56:33;;;;;;;12.15;3.03;;;10.00;99.90;;;;;;5040829;28;20033;-51
2021/11/01 02:58:58;;;;;;;15.73;3.13;;;10.00;99.90;;;;;;5034254;28;20040;-51
2021/11/01 03:01:25;;;;;;;16.63;3.45;;;10.00;99.90;;;;;;5029038;28;20037;-52
2021/11/01 03:03:51;;;;;;;22.50;3.78;;;10.00;99.90;;;;;;5039408;28;20045;-52
2021/11/01 03:06:22;;;;;;;18.02;2.80;;;10.00;99.90;;;;;;5030751;28;20044;-51
2021/11/01 03:08:49;;;;;;;14.23;2.92;;;9.90;99.90;;;;;;5038528;28;20164;-52
2021/11/01 03:11:16;;;;;;;12.30;2.80;;;10.00;99.90;;;;;;5039556;28;20041;-51
2021/11/01 03:13:43;;;;;;;15.15;2.60;;;9.90;99.90;;;;;;5032803;28;20048;-52
2021/11/01 03:16:09;;;;;;;15.82;3.00;;;9.90;99.90;;;;;;5031892;28;20112;-52
2021/11/01 03:18:43;;;;;;;14.15;2.97;;;9.90;99.90;;;;;;5036070;28;20055;-51
2021/11/01 03:21:15;;;;;;;15.15;3.17;;;9.90;99.90;;;;;;5012283;28;20516;-54
2021/11/01 03:23:47;;;;;;;19.17;2.90;;;9.90;99.90;;;;;;5034575;28;20049;-51
2021/11/01 03:26:16;;;;;;;9.18;2.55;;;9.90;99.90;;;;;;5032480;28;20034;-50
2021/11/01 03:28:43;;;;;;;16.52;2.72;;;9.90;99.90;;;;;;5032300;28;20114;-54
2021/11/01 03:31:11;;;;;;;12.68;3.10;;;9.90;99.90;;;;;;5034417;28;20044;-52
2021/11/01 03:33:38;;;;;;;13.40;2.85;;;9.90;99.90;;;;;;5014059;28;20041;-53
2021/11/01 03:36:05;;;;;;;10.75;2.30;;;9.90;99.90;;;;;;5039653;28;20051;-51
2021/11/01 03:38:31;;;;;;;18.17;3.80;;;9.90;99.90;;;;;;5041038;28;20443;-52
2021/11/01 03:40:58;;;;;;;21.63;3.72;;;9.90;99.90;;;;;;5040486;28;20559;-52
2021/11/01 03:43:35;;;;;;;17.90;3.00;;;9.90;99.90;;;;;;5008681;28;20465;-53
2021/11/01 03:46:03;;;;;;;10.85;3.05;;;9.90;99.90;;;;;;5029823;28;20120;-51
2021/11/01 03:48:36;;;;;;;9.68;2.80;;;9.80;99.90;;;;;;5034667;28;20041;-48
2021/11/01 03:51:07;;;;;;;15.45;2.90;;;9.90;99.90;;;;;;5004459;28;20034;-52
2021/11/01 03:53:32;;;;;;;11.77;2.28;;;9.90;99.90;;;;;;5028767;28;20402;-52
2021/11/01 03:55:58;;;;;;;15.35;3.10;;;9.80;99.90;;;;;;5039104;28;20034;-52
2021/11/01 03:58:25;;;;;;;10.15;2.60;;;9.80;99.90;;;;;;5042056;28;20532;-51
2021/11/01 04:00:52;;;;;;;14.07;2.75;;;9.80;99.90;;;;;;5029338;28;20041;-53
2021/11/01 04:03:23;;;;;;;16.83;2.55;;;9.80;99.90;;;;;;5039564;28;20037;-49
2021/11/01 04:05:53;;;;;;;16.70;2.67;;;9.80;99.90;;;;;;5031338;28;20432;-49
2021/11/01 04:08:18;;;;;;;13.88;2.90;;;9.80;99.90;;;;;;5027367;28;20111;-53
2021/11/01 04:10:44;;;;;;;14.20;3.08;;;9.70;99.90;;;;;;5039895;28;20037;-51
2021/11/01 04:13:09;;;;;;;12.80;2.67;;;9.70;99.90;;;;;;5029817;28;20029;-52
2021/11/01 04:15:43;;;;;;;14.38;2.67;;;9.70;99.90;;;;;;5031812;28;20041;-51
2021/11/01 04:18:08;;;;;;;12.73;2.58;;;9.70;99.90;;;;;;5029816;28;20124;-52
2021/11/01 04:20:53;;;;;;;9.05;2.45;;;9.70;99.90;;;;;;5038639;28;20124;-50
2021/11/01 04:23:23;;;;;;;13.32;2.50;;;9.70;99.90;;;;;;5027878;28;20079;-51
2021/11/01 04:25:49;;;;;;;13.55;2.22;;;9.70;99.90;;;;;;5036877;28;20045;-52
2021/11/01 04:28:14;;;;;;;10.27;2.40;;;9.60;99.90;;;;;;5024564;28;20183;-51
2021/11/01 04:30:43;;;;;;;8.35;1.92;;;9.60;99.90;;;;;;5034488;28;20040;-52
2021/11/01 04:33:15;;;;;;;9.25;2.53;;;9.60;99.90;;;;;;5025275;28;20052;-52
2021/11/01 04:35:41;;;;;;;11.73;2.83;;;9.60;99.90;;;;;;5029685;28;20049;-52
2021/11/01 04:38:39;;;;;;;11.13;3.20;;;9.60;99.90;;;;;;5034855;28;20041;-51
2021/11/01 04:41:21;;;;;;;12.00;2.60;;;9.60;99.90;;;;;;5029274;28;20481;-51
2021/11/01 04:44:18;;;;;;;12.43;2.65;;;9.60;99.90;;;;;;5040329;28;20038;-49
2021/11/01 04:54:56;;;;;;;11.32;2.60;;;9.60;99.90;;;;;;5034935;28;20072;-50
2021/11/01 04:57:22;;;;;;;11.38;2.70;;;9.60;99.90;;;;;;5035511;28;20497;-53
2021/11/01 04:59:48;;;;;;;7.15;2.15;;;9.60;99.90;;;;;;5039483;28;20037;-53
2021/11/01 05:02:15;;;;;;;12.43;2.83;;;9.50;99.90;;;;;;5035973;28;20124;-50
2021/11/01 05:04:43;;;;;;;14.07;2.40;;;9.50;99.90;;;;;;5042988;28;20037;-50
2021/11/01 05:07:09;;;;;;;9.10;2.10;;;9.50;99.90;;;;;;5034489;28;20041;-51
2021/11/01 05:09:43;;;;;;;12.15;2.53;;;9.40;99.90;;;;;;5032362;28;20038;-52
2021/11/01 05:12:21;;;;;;;10.30;2.30;;;9.40;99.90;;;;;;5034955;28;20041;-54
2021/11/01 05:19:53;;;;;;;7.93;2.28;;;9.30;99.90;;;;;;5035987;28;20506;-51
2021/11/01 05:25:11;;;;;;;14.75;2.75;;;9.30;99.90;;;;;;5029083;28;20041;-52
2021/11/01 05:30:28;;;;;;;10.30;2.13;;;9.40;99.90;;;;;;5018749;28;20040;-48
2021/11/01 05:33:03;;;;;;;11.27;2.65;;;9.30;99.90;;;;;;5027162;28;20056;-51
2021/11/01 05:35:29;;;;;;;16.80;2.50;;;9.30;99.90;;;;;;5034184;28;20479;-49
2021/11/01 05:37:54;;;;;;;11.40;2.42;;;9.30;99.90;;;;;;5038193;28;20040;-48
2021/11/01 05:40:20;;;;;;;13.90;2.55;;;9.30;99.90;;;;;;5035369;28;20512;-52
2021/11/01 05:42:46;;;;;;;18.40;2.95;;;9.30;99.90;;;;;;5038840;28;20057;-48
2021/11/01 05:45:11;;;;;;;12.93;2.72;;;9.30;99.90;;;;;;5030439;28;20065;-49
2021/11/01 05:47:39;;;;;;;16.98;3.13;;;9.30;99.90;;;;;;5032735;28;20037;-51
2021/11/01 05:50:05;;;;;;;14.07;2.65;;;9.30;99.90;;;;;;5038704;28;20036;-48
2021/11/01 05:52:33;;;;;;;11.80;2.78;;;9.20;99.90;;;;;;5038808;28;20060;-48
2021/11/01 05:55:07;;;;;;;12.30;2.70;;;9.30;99.90;;;;;;5016800;28;20471;-50
2021/11/01 05:57:48;;;;;;;10.30;2.22;;;9.30;99.90;;;;;;5030994;28;20048;-51
2021/11/01 06:00:21;;;;;;;10.07;2.13;;;9.20;99.90;;;;;;5035503;28;20049;-50
2021/11/01 06:06:17;;;;;;;16.00;2.83;;;9.20;99.90;;;;;;5038791;28;20118;-51
2021/11/01 06:15:52;;;;;;;11.27;2.60;;;9.20;99.90;;;;;;5040286;28;20051;-52
2021/11/01 06:18:18;;;;;;;13.18;2.47;;;9.20;99.90;;;;;;5030058;28;20033;-50
2021/11/01 06:20:43;;;;;;;12.88;2.80;;;9.20;99.90;;;;;;5013045;28;20084;-48
2021/11/01 06:23:09;;;;;;;14.55;2.80;;;9.20;99.90;;;;;;5037591;28;20499;-48
2021/11/01 06:25:36;;;;;;;11.18;3.30;;;9.20;99.90;;;;;;5028472;28;20041;-52
2021/11/01 06:28:02;;;;;;;14.05;3.30;;;9.20;99.90;;;;;;5009924;28;20042;-48
2021/11/01 06:30:31;;;;;;;14.35;3.50;;;9.20;99.90;;;;;;5033363;28;20159;-54
2021/11/01 07:16:49;;;;;;;20.90;2.92;;;9.40;99.90;;;;;;5028792;28;20053;-51
2021/11/01 07:19:07;;;;;;;13.18;2.65;;;9.50;99.90;;;;;;5020523;28;20072;-49
2021/11/01 07:21:55;;;;;;;14.18;2.75;;;9.50;99.90;;;;;;5023253;28;20045;-51
2021/11/01 08:25:13;;;;;;;16.45;3.67;;;10.20;99.90;;;;;;5026345;28;20038;-52
2021/11/01 08:48:49;;;;;;;12.23;3.58;;;10.40;99.90;;;;;;5030841;28;20060;-51
2021/11/01 08:51:35;;;;;;;14.30;3.47;;;10.40;99.90;;;;;;5028773;28;20474;-53
2021/11/01 09:21:01;;;;;;;12.52;3.42;;;10.80;99.90;;;;;;5026958;28;20053;-53
2021/11/01 09:26:13;;;;;;;13.13;2.88;;;10.90;99.90;;;;;;5021252;28;20077;-52
2021/11/01 09:28:52;;;;;;;13.70;3.00;;;10.90;99.90;;;;;;5032603;28;20038;-49
2021/11/01 09:37:13;;;;;;;12.23;3.10;;;11.00;99.90;;;;;;5034102;28;20540;-52
2021/11/01 09:42:19;;;;;;;11.40;3.13;;;11.00;99.90;;;;;;5037563;28;20065;-52
2021/11/01 09:44:48;;;;;;;9.02;2.55;;;11.10;99.90;;;;;;5008167;28;20045;-53
2021/11/01 09:47:14;;;;;;;13.55;3.30;;;11.10;99.90;;;;;;4999643;28;20042;-51
2021/11/01 09:49:40;;;;;;;14.85;3.25;;;11.20;99.90;;;;;;5039288;28;20508;-54
2021/11/01 09:52:08;;;;;;;8.63;2.88;;;11.20;99.90;;;;;;5034972;28;20033;-54
2021/11/01 09:54:37;;;;;;;13.32;3.28;;;11.20;99.90;;;;;;5006960;28;20041;-49
2021/11/01 09:57:19;;;;;;;14.73;3.33;;;11.30;99.90;;;;;;5028373;28;20473;-51
2021/11/01 09:59:45;;;;;;;12.90;2.60;;;11.40;99.90;;;;;;5034821;28;20048;-52
2021/11/01 10:02:13;;;;;;;12.95;2.70;;;11.50;99.30;;;;;;5034387;28;20045;-49
2021/11/01 10:04:42;;;;;;;11.48;3.17;;;11.50;99.90;;;;;;5027104;28;20045;-54
2021/11/01 10:07:19;;;;;;;7.90;2.85;;;11.50;99.60;;;;;;5038357;28;20119;-50
2021/11/01 10:09:51;;;;;;;10.57;3.08;;;11.50;99.90;;;;;;5020084;28;20037;-53
2021/11/01 10:12:20;;;;;;;9.35;2.63;;;11.60;99.70;;;;;;5032749;28;20048;-51
2021/11/01 10:14:51;;;;;;;11.70;2.42;;;11.60;98.90;;;;;;5015687;28;20038;-50
2021/11/01 10:17:36;;;;;;;9.87;2.60;;;11.60;99.20;;;;;;5035255;28;20429;-50
2021/11/01 10:20:20;;;;;;;10.15;2.40;;;11.70;98.90;;;;;;5042975;28;20325;-51
2021/11/01 10:22:46;;;;;;;7.78;2.13;;;11.70;99.30;;;;;;5036751;28;20044;-52
2021/11/01 10:25:17;;;;;;;11.27;2.38;;;11.80;98.70;;;;;;5034544;28;20393;-51
2021/11/01 10:27:48;;;;;;;10.07;2.30;;;11.90;98.70;;;;;;5011144;28;20173;-52
2021/11/01 10:30:16;;;;;;;6.53;2.03;;;11.90;98.00;;;;;;5029418;28;20033;-50
2021/11/01 10:32:48;;;;;;;14.20;2.42;;;11.80;97.20;;;;;;5034356;28;20125;-49
2021/11/01 10:35:24;;;;;;;8.07;2.10;;;11.80;97.90;;;;;;5032680;28;20038;-50
2021/11/01 10:38:29;;;;;;;8.73;2.80;;;11.70;97.60;;;;;;5025074;28;20033;-49
2021/11/01 10:41:27;;;;;;;7.13;2.13;;;11.70;97.70;;;;;;5035154;28;20044;-52
2021/11/01 10:47:12;;;;;;;7.85;2.15;;;11.50;97.90;;;;;;5032169;28;20151;-56
2021/11/01 11:11:43;;;;;;;7.78;1.85;;;11.70;98.00;;;;;;5030452;28;20172;-55
2021/11/01 11:22:38;;;;;;;10.32;2.10;;;12.00;96.30;;;;;;5029293;28;19921;-55
2021/11/01 11:39:20;;;;;;;7.88;2.15;;;12.30;96.40;;;;;;5037384;28;20136;-50
2021/11/01 11:47:46;;;;;;;10.90;2.10;;;12.30;95.30;;;;;;5028698;28;20099;-49
2021/11/01 11:50:23;;;;;;;11.57;2.60;;;12.30;95.00;;;;;;5024614;28;20037;-53
2021/11/01 11:52:49;;;;;;;7.15;2.00;;;12.30;95.90;;;;;;5036607;28;20072;-50
2021/11/01 11:55:26;;;;;;;12.95;2.67;;;12.40;94.70;;;;;;5038670;28;20033;-53
2021/11/01 11:57:57;;;;;;;8.55;2.05;;;12.40;94.40;;;;;;5033702;28;20040;-51
2021/11/01 12:00:29;;;;;;;7.05;2.25;;;12.40;94.70;;;;;;5029979;28;20049;-50
2021/11/01 12:02:57;;;;;;;8.20;2.03;;;12.40;95.10;;;;;;5030615;28;20561;-50
2021/11/01 12:05:37;;;;;;;6.10;1.80;;;12.50;95.10;;;;;;5030985;28;20075;-52
2021/11/01 12:08:24;;;;;;;5.75;1.80;;;12.50;93.70;;;;;;5002781;28;20434;-53
2021/11/01 12:19:05;;;;;;;4.65;1.98;;;12.60;94.40;;;;;;4985872;28;20101;-54
2021/11/01 12:21:37;;;;;;;8.07;2.15;;;12.60;94.00;;;;;;4988531;28;20521;-55
2021/11/01 12:24:21;;;;;;;5.73;1.87;;;12.60;94.30;;;;;;4984716;28;20046;-55
2021/11/01 12:27:04;;;;;;;9.80;2.13;;;12.50;92.80;;;;;;4974715;28;20055;-55
2021/11/01 12:29:31;;;;;;;6.43;1.73;;;12.70;93.40;;;;;;4975134;28;20117;-55
2021/11/01 12:32:05;;;;;;;5.97;1.63;;;12.70;94.40;;;;;;4969408;28;20046;-55
2021/11/01 12:34:36;;;;;;;4.43;1.58;;;12.80;94.20;;;;;;4981967;28;20031;-54
2021/11/01 12:37:10;;;;;;;7.28;1.70;;;12.70;94.40;;;;;;4971851;28;20170;-54
2021/11/01 12:39:40;;;;;;;11.07;1.92;;;12.80;94.50;;;;;;4976426;28;20034;-54
2021/11/01 12:47:46;;;;;;;7.60;2.35;;;12.90;92.80;;;;;;4974657;28;20057;-54
2021/11/01 12:58:35;;;;;;;4.22;1.60;;;12.90;92.60;;;;;;4969502;28;20058;-54
2021/11/01 13:01:09;;;;;;;11.32;2.10;;;12.80;93.00;;;;;;4967991;28;20035;-54
2021/11/01 13:03:35;;;;;;;6.80;1.70;;;12.80;93.30;;;;;;4974300;28;20053;-55
2021/11/01 13:06:09;;;;;;;4.35;1.52;;;12.90;92.70;;;;;;4966122;28;20547;-55
2021/11/01 13:08:48;;;;;;;9.27;1.65;;;12.90;93.10;;;;;;4971405;28;20047;-55
2021/11/01 13:11:37;;;;;;;7.43;1.67;;;12.90;92.40;;;;;;4952581;28;20114;-56
2021/11/01 13:14:16;;;;;;;7.15;1.70;;;12.90;92.20;;;;;;4971711;28;20121;-55
2021/11/01 13:19:26;;;;;;;7.32;1.90;;;12.90;92.40;;;;;;4992823;28;20065;-54
2021/11/01 13:22:06;;;;;;;6.15;1.60;;;12.90;92.30;;;;;;4991569;28;20502;-55
2021/11/01 13:25:02;;;;;;;5.07;1.20;;;12.90;93.00;;;;;;4995671;28;20100;-53
2021/11/01 13:27:40;;;;;;;6.25;1.70;;;12.90;93.30;;;;;;4998180;28;20085;-54
2021/11/01 13:38:54;;;;;;;6.85;1.83;;;12.90;91.90;;;;;;4988171;28;20050;-51
2021/11/01 13:41:29;;;;;;;5.90;1.50;;;12.90;93.00;;;;;;4989555;28;20125;-53
2021/11/01 13:44:11;;;;;;;5.57;1.45;;;12.90;91.60;;;;;;4983405;28;20043;-53
2021/11/01 13:46:45;;;;;;;8.07;1.77;;;12.90;92.30;;;;;;4983061;28;20498;-53
2021/11/01 13:49:13;;;;;;;4.72;1.35;;;12.90;92.20;;;;;;4980353;28;20126;-54
2021/11/01 13:51:38;;;;;;;8.73;2.40;;;13.00;91.60;;;;;;4987177;28;20053;-53
2021/11/01 13:54:11;;;;;;;5.93;2.00;;;13.00;91.30;;;;;;4986781;28;20035;-55
2021/11/01 13:56:42;;;;;;;6.43;1.90;;;12.90;90.80;;;;;;4983762;28;20035;-55
2021/11/01 13:59:24;;;;;;;5.10;1.65;;;12.90;91.40;;;;;;4978267;28;20479;-52
2021/11/01 14:02:06;;;;;;;4.80;1.65;;;12.80;91.80;;;;;;4988430;28;20437;-52
2021/11/01 15:20:20;;;;;;;7.35;1.52;;;12.00;93.20;;;;;;4952390;28;20141;-55
2021/11/01 15:23:07;;;;;;;8.20;1.67;;;12.10;93.20;;;;;;4960761;28;20074;-54
2021/11/01 15:26:00;;;;;;;10.13;2.40;;;12.00;93.40;;;;;;4965433;28;20043;-56
2021/11/01 16:19:49;;;;;;;7.03;2.28;;;11.20;94.60;;;;;;4965270;28;20724;-55
2021/11/01 16:22:15;;;;;;;13.48;2.65;;;11.20;94.50;;;;;;4963402;28;20047;-53
2021/11/01 16:24:41;;;;;;;7.35;3.40;;;11.20;94.70;;;;;;4959724;28;20118;-55
2021/11/01 16:27:08;;;;;;;9.18;3.38;;;11.10;94.90;;;;;;4971212;28;20121;-55
2021/11/01 16:29:57;;;;;;;7.03;3.13;;;11.10;94.70;;;;;;4965169;28;20031;-53
2021/11/01 16:32:43;;;;;;;18.02;13.68;;;11.10;94.30;;;;;;4970198;28;20077;-55
2021/11/01 16:35:12;;;;;;;10.30;3.90;;;11.10;94.20;;;;;;4968443;28;20054;-53
2021/11/01 16:37:47;;;;;;;9.77;5.18;;;11.10;94.50;;;;;;4967078;28;20042;-54
2021/11/01 16:40:13;;;;;;;12.63;7.97;;;11.10;94.50;;;;;;4952785;28;20045;-52
2021/11/01 16:42:42;;;;;;;10.90;5.15;;;11.00;94.70;;;;;;4966592;28;20047;-55
2021/11/01 16:45:27;;;;;;;9.65;4.72;;;11.00;94.60;;;;;;4969286;28;20067;-55
2021/11/01 16:47:53;;;;;;;8.95;2.58;;;11.00;94.80;;;;;;4954172;28;20039;-54
2021/11/01 16:50:19;;;;;;;7.22;2.20;;;10.90;94.70;;;;;;4969998;28;20109;-54
2021/11/01 16:52:47;;;;;;;10.98;2.35;;;11.00;94.90;;;;;;4969284;28;20125;-55
2021/11/01 16:55:21;;;;;;;10.95;2.10;;;10.90;94.70;;;;;;4970776;28;20070;-53
2021/11/01 16:57:58;;;;;;;7.07;2.35;;;10.90;94.80;;;;;;4972396;28;20445;-52
2021/11/01 17:00:43;;;;;;;7.15;1.85;;;10.90;94.90;;;;;;4980617;28;20034;-53
2021/11/01 17:06:01;;;;;;;8.45;2.05;;;10.70;95.30;;;;;;4974534;28;20047;-55
2021/11/01 17:22:40;;;;;;;9.10;2.15;;;10.60;96.40;;;;;;5000453;28;20053;-52
2021/11/01 17:25:12;;;;;;;10.18;2.25;;;10.70;96.30;;;;;;4996411;28;20086;-55
2021/11/01 17:30:47;;;;;;;16.35;10.18;;;10.70;96.10;;;;;;4983808;28;20057;-52
2021/11/01 18:40:10;;;;;;;9.52;4.85;;;10.40;98.70;;;;;;4996126;28;20042;-50
2021/11/01 18:53:15;;;;;;;12.65;6.25;;;10.40;98.90;;;;;;4979249;28;20513;-49
2021/11/01 18:55:50;;;;;;;14.95;7.97;;;10.40;99.00;;;;;;4980907;28;20069;-52
2021/11/01 18:58:21;;;;;;;38.03;34.05;;;10.40;99.30;;;;;;4978116;28;20030;-52
2021/11/01 19:00:48;;;;;;;9.32;4.45;;;10.50;99.30;;;;;;4982143;28;20042;-54
2021/11/01 19:03:16;;;;;;;9.13;3.25;;;10.50;99.40;;;;;;4982087;28;20081;-50
2021/11/01 19:05:53;;;;;;;7.45;3.28;;;10.50;99.60;;;;;;4991640;28;20034;-49
2021/11/01 19:08:35;;;;;;;11.50;2.63;;;10.40;99.70;;;;;;4982516;28;20463;-50
2021/11/01 19:11:38;;;;;;;8.10;2.40;;;10.40;99.90;;;;;;4988809;28;20109;-55
2021/11/01 20:04:17;;;;;;;9.40;7.18;;;9.70;99.90;;;;;;4980015;28;20042;-52
2021/11/01 21:26:59;;;;;;;6.97;3.35;;;8.90;99.90;;;;;;5063682;23;20124;-54
2021/11/01 21:29:27;;;;;;;7.63;3.50;;;8.80;99.90;;;;;;5024616;28;20060;-52
2021/11/01 21:31:53;;;;;;;5.40;3.20;;;8.90;99.90;;;;;;5030234;28;20048;-51
2021/11/01 21:34:28;;;;;;;6.43;4.07;;;8.90;99.90;;;;;;5012415;28;20103;-51
2021/11/01 21:36:54;;;;;;;6.15;3.40;;;8.90;99.90;;;;;;5030170;28;20117;-50
2021/11/01 21:39:20;;;;;;;7.13;3.25;;;8.80;99.90;;;;;;5026445;28;20044;-53
2021/11/01 21:41:46;;;;;;;5.88;3.60;;;8.80;99.90;;;;;;5029536;28;20042;-55
2021/11/01 21:44:12;;;;;;;6.30;3.60;;;8.80;99.90;;;;;;5027521;28;20184;-54
2021/11/01 21:46:37;;;;;;;7.95;3.70;;;8.80;99.90;;;;;;5034428;28;20037;-55
2021/11/01 21:49:03;;;;;;;6.60;3.65;;;8.80;99.90;;;;;;5032082;28;20072;-55
2021/11/01 21:51:31;;;;;;;7.53;3.65;;;8.70;99.90;;;;;;5034510;28;20037;-55
2021/11/01 21:54:16;;;;;;;7.47;3.60;;;8.70;99.90;;;;;;5034572;28;20041;-56
2021/11/01 21:56:46;;;;;;;6.20;4.00;;;8.70;99.90;;;;;;4998836;28;20116;-56
2021/11/01 21:59:23;;;;;;;6.85;3.58;;;8.60;99.90;;;;;;5033848;28;20025;-56
2021/11/01 22:20:35;;;;;;;10.07;4.15;;;8.50;99.90;;;;;;5024993;28;20453;-54
2021/11/01 22:25:38;;;;;;;6.30;3.67;;;8.50;99.90;;;;;;5025025;28;20042;-52
2021/11/01 22:38:55;;;;;;;6.97;4.00;;;8.40;99.90;;;;;;5033775;28;20183;-52
2021/11/01 22:46:49;;;;;;;7.38;3.72;;;8.40;99.90;;;;;;5033926;28;20053;-55
2021/11/01 22:57:29;;;;;;;7.30;4.35;;;8.30;99.90;;;;;;5032303;28;20052;-53
2021/11/01 22:59:55;;;;;;;6.43;4.25;;;8.30;99.90;;;;;;5033045;28;20045;-52
2021/11/01 23:33:22;;;;;;;8.45;5.15;;;8.10;99.90;;;;;;5033314;28;20513;-54
2021/11/01 23:35:48;;;;;;;9.00;5.20;;;8.00;99.90;;;;;;5025349;28;20077;-53
2021/11/01 23:38:15;;;;;;;8.80;5.13;;;8.10;99.90;;;;;;5032339;28;20120;-55
2021/11/01 23:40:41;;;;;;;10.40;5.20;;;8.00;99.90;;;;;;5032015;28;20029;-55
2021/11/01 23:43:07;;;;;;;8.90;4.85;;;8.00;99.90;;;;;;5029437;28;20103;-53
2021/11/01 23:45:38;;;;;;;9.95;4.95;;;8.00;99.90;;;;;;5031209;28;20448;-55
2021/11/01 23:48:05;;;;;;;8.13;5.22;;;8.00;99.90;;;;;;5023449;28;20068;-54
2021/11/01 23:50:33;;;;;;;9.52;5.20;;;8.00;99.90;;;;;;5030936;28;20125;-55
2021/11/01 23:53:37;;;;;;;8.40;5.40;;;8.00;99.90;;;;;;5025389;28;20287;-55
2021/11/01 23:55:52;;;;;;;8.32;5.38;;;8.00;99.90;;;;;;5028740;28;20088;-53
2021/11/01 23:58:17;;;;;;;10.88;6.13;;;7.90;99.90;;;;;;5032161;28;20076;-54
